Terminal Aerodrome Forecast
Issued by NWS

Home | Current Version | Previous Version | Text Only | Print | Product List | Glossary On
Versions: 1 2 3 4 5 6 7 8 9 10 11 12
000
FTUS45 KVEF 282326
TAFDAG
TAF
KDAG 282326Z 2900/2924 03007KT P6SM FEW250
     FM290100 26011KT P6SM SCT250
     FM291500 29009KT P6SM SCT250
     FM292200 04008KT P6SM SCT250=

USA.gov is the U.S. government's official web portal to all federal, state and local government web resources and services.